sensor_id;sensor_type;location;lat;lon;timestamp;temperature;humidity
37356;DHT22;48747;50.250;18.848;2023-04-25T02:53:30;9.70;99.90
37356;DHT22;48747;50.250;18.848;2023-04-25T04:48:28;9.60;99.90
37356;DHT22;48747;50.250;18.848;2023-04-25T05:26:41;9.90;99.90
37356;DHT22;48747;50.250;18.848;2023-04-25T06:40:55;10.50;99.90
37356;DHT22;48747;50.250;18.848;2023-04-25T06:43:11;10.50;99.90
37356;DHT22;48747;50.250;18.848;2023-04-25T06:47:57;10.60;99.90
37356;DHT22;48747;50.250;18.848;2023-04-25T06:50:39;10.70;99.90
37356;DHT22;48747;50.250;18.848;2023-04-25T06:52:45;10.70;99.90
37356;DHT22;48747;50.250;18.848;2023-04-25T07:00:15;10.80;99.90
37356;DHT22;48747;50.250;18.848;2023-04-25T07:02:23;10.80;99.90
37356;DHT22;48747;50.250;18.848;2023-04-25T07:50:16;11.70;99.90
37356;DHT22;48747;50.250;18.848;2023-04-25T11:59:12;13.30;72.00
37356;DHT22;48747;50.250;18.848;2023-04-25T12:07:03;13.10;71.00
37356;DHT22;48747;50.250;18.848;2023-04-25T12:12:09;12.80;72.10
37356;DHT22;48747;50.250;18.848;2023-04-25T12:22:56;12.50;71.70
37356;DHT22;48747;50.250;18.848;2023-04-25T12:25:03;12.40;71.70
37356;DHT22;48747;50.250;18.848;2023-04-25T12:27:15;12.40;73.80
37356;DHT22;48747;50.250;18.848;2023-04-25T12:52:56;13.00;70.60
37356;DHT22;48747;50.250;18.848;2023-04-25T13:02:13;12.90;72.20
37356;DHT22;48747;50.250;18.848;2023-04-25T13:04:29;12.90;70.80
37356;DHT22;48747;50.250;18.848;2023-04-25T13:06:42;12.90;72.20
37356;DHT22;48747;50.250;18.848;2023-04-25T13:08:55;12.90;72.40
37356;DHT22;48747;50.250;18.848;2023-04-25T13:11:05;12.90;71.30
37356;DHT22;48747;50.250;18.848;2023-04-25T13:16:07;12.90;73.60
37356;DHT22;48747;50.250;18.848;2023-04-25T13:20:23;12.80;73.50
37356;DHT22;48747;50.250;18.848;2023-04-25T13:22:28;12.90;72.10
37356;DHT22;48747;50.250;18.848;2023-04-25T13:24:31;12.80;71.40
37356;DHT22;48747;50.250;18.848;2023-04-25T13:26:34;12.70;71.40
37356;DHT22;48747;50.250;18.848;2023-04-25T13:29:07;12.70;71.00
37356;DHT22;48747;50.250;18.848;2023-04-25T13:31:32;12.70;71.10
37356;DHT22;48747;50.250;18.848;2023-04-25T13:33:36;12.80;71.50
37356;DHT22;48747;50.250;18.848;2023-04-25T13:35:43;12.90;72.00
37356;DHT22;48747;50.250;18.848;2023-04-25T13:37:48;13.10;70.90
37356;DHT22;48747;50.250;18.848;2023-04-25T13:39:58;13.10;70.40
37356;DHT22;48747;50.250;18.848;2023-04-25T13:45:01;13.40;69.90
37356;DHT22;48747;50.250;18.848;2023-04-25T13:52:32;13.70;68.20
37356;DHT22;48747;50.250;18.848;2023-04-25T13:54:43;13.70;70.40
37356;DHT22;48747;50.250;18.848;2023-04-25T13:56:43;13.60;70.10
37356;DHT22;48747;50.250;18.848;2023-04-25T14:01:31;13.70;70.30
37356;DHT22;48747;50.250;18.848;2023-04-25T14:03:41;13.60;69.30
37356;DHT22;48747;50.250;18.848;2023-04-25T14:08:10;13.70;69.60
37356;DHT22;48747;50.250;18.848;2023-04-25T14:10:17;13.70;68.40
37356;DHT22;48747;50.250;18.848;2023-04-25T14:15:17;13.70;67.50
37356;DHT22;48747;50.250;18.848;2023-04-25T14:20:15;14.10;67.50
37356;DHT22;48747;50.250;18.848;2023-04-25T14:24:24;14.70;67.60
37356;DHT22;48747;50.250;18.848;2023-04-25T14:26:47;14.70;66.80
37356;DHT22;48747;50.250;18.848;2023-04-25T14:29:00;14.70;67.30
37356;DHT22;48747;50.250;18.848;2023-04-25T14:33:47;14.30;67.30
37356;DHT22;48747;50.250;18.848;2023-04-25T14:43:36;13.70;68.40
37356;DHT22;48747;50.250;18.848;2023-04-25T14:48:02;13.80;69.20
37356;DHT22;48747;50.250;18.848;2023-04-25T14:53:34;13.80;69.10
37356;DHT22;48747;50.250;18.848;2023-04-25T15:05:38;13.30;70.60
37356;DHT22;48747;50.250;18.848;2023-04-25T15:07:43;13.20;70.70
37356;DHT22;48747;50.250;18.848;2023-04-25T15:12:27;13.10;71.20
37356;DHT22;48747;50.250;18.848;2023-04-25T15:17:32;13.30;70.50
37356;DHT22;48747;50.250;18.848;2023-04-25T15:24:10;13.50;70.20
37356;DHT22;48747;50.250;18.848;2023-04-25T15:36:30;13.30;69.80
37356;DHT22;48747;50.250;18.848;2023-04-25T15:40:54;13.00;70.80
37356;DHT22;48747;50.250;18.848;2023-04-25T15:45:11;12.80;72.20
37356;DHT22;48747;50.250;18.848;2023-04-25T15:47:18;12.70;72.00
37356;DHT22;48747;50.250;18.848;2023-04-25T15:49:29;12.60;72.50
37356;DHT22;48747;50.250;18.848;2023-04-25T15:53:58;12.90;72.60
37356;DHT22;48747;50.250;18.848;2023-04-25T15:55:59;13.00;70.60
37356;DHT22;48747;50.250;18.848;2023-04-25T15:58:07;13.00;70.90
37356;DHT22;48747;50.250;18.848;2023-04-25T16:00:12;13.10;71.00
37356;DHT22;48747;50.250;18.848;2023-04-25T16:04:24;13.10;72.00
37356;DHT22;48747;50.250;18.848;2023-04-25T16:08:39;12.90;71.20
37356;DHT22;48747;50.250;18.848;2023-04-25T16:10:44;12.80;72.00
37356;DHT22;48747;50.250;18.848;2023-04-25T16:12:48;12.80;71.40
37356;DHT22;48747;50.250;18.848;2023-04-25T16:14:52;12.70;70.40
37356;DHT22;48747;50.250;18.848;2023-04-25T16:17:00;12.70;70.40
37356;DHT22;48747;50.250;18.848;2023-04-25T16:19:05;12.60;70.80
37356;DHT22;48747;50.250;18.848;2023-04-25T16:21:10;12.60;71.70
37356;DHT22;48747;50.250;18.848;2023-04-25T16:23:15;12.60;69.80
37356;DHT22;48747;50.250;18.848;2023-04-25T16:25:19;12.60;70.20
37356;DHT22;48747;50.250;18.848;2023-04-25T16:27:23;12.60;70.20
37356;DHT22;48747;50.250;18.848;2023-04-25T16:29:27;12.60;70.20
37356;DHT22;48747;50.250;18.848;2023-04-25T16:31:32;12.60;70.40
37356;DHT22;48747;50.250;18.848;2023-04-25T16:33:35;12.60;70.50
37356;DHT22;48747;50.250;18.848;2023-04-25T16:35:43;12.60;71.80
37356;DHT22;48747;50.250;18.848;2023-04-25T16:37:47;12.60;69.90
37356;DHT22;48747;50.250;18.848;2023-04-25T16:39:57;12.60;69.90
37356;DHT22;48747;50.250;18.848;2023-04-25T16:41:59;12.70;69.50
37356;DHT22;48747;50.250;18.848;2023-04-25T16:44:02;12.70;69.30
37356;DHT22;48747;50.250;18.848;2023-04-25T16:46:09;12.60;69.00
37356;DHT22;48747;50.250;18.848;2023-04-25T16:48:13;12.60;68.70
37356;DHT22;48747;50.250;18.848;2023-04-25T16:50:23;12.60;67.80
37356;DHT22;48747;50.250;18.848;2023-04-25T16:52:29;12.50;68.30
37356;DHT22;48747;50.250;18.848;2023-04-25T16:54:32;12.30;68.40
37356;DHT22;48747;50.250;18.848;2023-04-25T16:56:37;12.20;68.50
37356;DHT22;48747;50.250;18.848;2023-04-25T16:58:40;12.10;68.60
37356;DHT22;48747;50.250;18.848;2023-04-25T17:00:43;11.90;68.80
37356;DHT22;48747;50.250;18.848;2023-04-25T17:02:48;11.80;69.00
37356;DHT22;48747;50.250;18.848;2023-04-25T17:04:51;11.70;69.30
37356;DHT22;48747;50.250;18.848;2023-04-25T17:07:00;11.70;69.50
37356;DHT22;48747;50.250;18.848;2023-04-25T17:09:00;11.70;69.80
37356;DHT22;48747;50.250;18.848;2023-04-25T17:11:04;11.60;69.30
37356;DHT22;48747;50.250;18.848;2023-04-25T17:13:08;11.50;69.00
37356;DHT22;48747;50.250;18.848;2023-04-25T17:15:11;11.50;69.30
37356;DHT22;48747;50.250;18.848;2023-04-25T17:17:16;11.50;69.20
37356;DHT22;48747;50.250;18.848;2023-04-25T17:19:24;11.50;69.60
37356;DHT22;48747;50.250;18.848;2023-04-25T17:21:30;11.50;69.50
37356;DHT22;48747;50.250;18.848;2023-04-25T17:23:39;11.40;70.00
37356;DHT22;48747;50.250;18.848;2023-04-25T17:25:39;11.40;71.10
37356;DHT22;48747;50.250;18.848;2023-04-25T17:27:42;11.30;71.00
37356;DHT22;48747;50.250;18.848;2023-04-25T17:29:45;11.30;71.30
37356;DHT22;48747;50.250;18.848;2023-04-25T17:33:59;11.20;72.20
37356;DHT22;48747;50.250;18.848;2023-04-25T17:36:02;11.10;72.90
37356;DHT22;48747;50.250;18.848;2023-04-25T17:38:06;11.10;72.80
37356;DHT22;48747;50.250;18.848;2023-04-25T17:40:10;11.10;73.40
37356;DHT22;48747;50.250;18.848;2023-04-25T17:42:13;11.00;73.60
37356;DHT22;48747;50.250;18.848;2023-04-25T17:44:16;11.00;73.50
37356;DHT22;48747;50.250;18.848;2023-04-25T17:46:21;11.00;73.80
37356;DHT22;48747;50.250;18.848;2023-04-25T17:48:25;10.90;74.30
37356;DHT22;48747;50.250;18.848;2023-04-25T17:50:30;10.90;74.60
37356;DHT22;48747;50.250;18.848;2023-04-25T17:52:33;10.90;75.00
37356;DHT22;48747;50.250;18.848;2023-04-25T17:54:37;10.80;75.40
37356;DHT22;48747;50.250;18.848;2023-04-25T17:56:42;10.80;75.80
37356;DHT22;48747;50.250;18.848;2023-04-25T17:58:45;10.70;76.90
37356;DHT22;48747;50.250;18.848;2023-04-25T18:00:52;10.70;76.90
37356;DHT22;48747;50.250;18.848;2023-04-25T18:03:13;10.60;77.10
37356;DHT22;48747;50.250;18.848;2023-04-25T18:05:07;10.60;77.70
37356;DHT22;48747;50.250;18.848;2023-04-25T18:07:14;10.60;77.90
37356;DHT22;48747;50.250;18.848;2023-04-25T18:09:17;10.50;78.30
37356;DHT22;48747;50.250;18.848;2023-04-25T18:11:23;10.50;78.60
37356;DHT22;48747;50.250;18.848;2023-04-25T18:13:35;10.40;79.50
37356;DHT22;48747;50.250;18.848;2023-04-25T18:15:47;10.30;80.00
37356;DHT22;48747;50.250;18.848;2023-04-25T18:17:53;10.20;80.70
37356;DHT22;48747;50.250;18.848;2023-04-25T18:22:13;10.10;81.90
37356;DHT22;48747;50.250;18.848;2023-04-25T18:27:02;10.00;82.00
37356;DHT22;48747;50.250;18.848;2023-04-25T18:28:46;10.00;82.90
37356;DHT22;48747;50.250;18.848;2023-04-25T18:30:50;10.00;84.40
37356;DHT22;48747;50.250;18.848;2023-04-25T18:32:59;9.90;84.00
37356;DHT22;48747;50.250;18.848;2023-04-25T18:35:07;9.90;84.30
37356;DHT22;48747;50.250;18.848;2023-04-25T18:37:13;9.90;84.90
37356;DHT22;48747;50.250;18.848;2023-04-25T18:39:21;9.80;86.10
37356;DHT22;48747;50.250;18.848;2023-04-25T18:41:24;9.70;87.60
37356;DHT22;48747;50.250;18.848;2023-04-25T18:43:29;9.70;87.80
37356;DHT22;48747;50.250;18.848;2023-04-25T18:45:34;9.60;88.70
37356;DHT22;48747;50.250;18.848;2023-04-25T18:47:38;9.60;90.00
37356;DHT22;48747;50.250;18.848;2023-04-25T18:49:45;9.60;90.10
37356;DHT22;48747;50.250;18.848;2023-04-25T18:51:49;9.50;90.30
37356;DHT22;48747;50.250;18.848;2023-04-25T18:53:57;9.50;91.00
37356;DHT22;48747;50.250;18.848;2023-04-25T18:58:17;9.40;91.70
37356;DHT22;48747;50.250;18.848;2023-04-25T19:00:28;9.40;92.40
37356;DHT22;48747;50.250;18.848;2023-04-25T19:04:33;9.30;93.50
37356;DHT22;48747;50.250;18.848;2023-04-25T19:06:37;9.30;94.40
37356;DHT22;48747;50.250;18.848;2023-04-25T19:08:40;9.20;94.20
37356;DHT22;48747;50.250;18.848;2023-04-25T19:10:47;9.20;94.60
37356;DHT22;48747;50.250;18.848;2023-04-25T19:12:50;9.20;95.00
37356;DHT22;48747;50.250;18.848;2023-04-25T19:14:56;9.30;96.20
37356;DHT22;48747;50.250;18.848;2023-04-25T19:16:59;9.30;95.90
37356;DHT22;48747;50.250;18.848;2023-04-25T19:19:02;9.30;96.20
37356;DHT22;48747;50.250;18.848;2023-04-25T19:21:05;9.30;96.30
37356;DHT22;48747;50.250;18.848;2023-04-25T19:23:09;9.30;96.40
37356;DHT22;48747;50.250;18.848;2023-04-25T19:25:12;9.30;96.50
37356;DHT22;48747;50.250;18.848;2023-04-25T19:27:15;9.30;96.80
37356;DHT22;48747;50.250;18.848;2023-04-25T19:29:27;9.30;98.20
37356;DHT22;48747;50.250;18.848;2023-04-25T19:31:31;9.30;97.30
37356;DHT22;48747;50.250;18.848;2023-04-25T19:33:35;9.30;96.80
37356;DHT22;48747;50.250;18.848;2023-04-25T19:35:38;9.30;95.90
37356;DHT22;48747;50.250;18.848;2023-04-25T19:37:42;9.30;96.10
37356;DHT22;48747;50.250;18.848;2023-04-25T19:39:48;9.30;95.90
37356;DHT22;48747;50.250;18.848;2023-04-25T19:41:53;9.30;96.20
37356;DHT22;48747;50.250;18.848;2023-04-25T19:43:58;9.30;96.50
37356;DHT22;48747;50.250;18.848;2023-04-25T19:46:06;9.30;96.80
37356;DHT22;48747;50.250;18.848;2023-04-25T19:48:10;9.40;96.90
37356;DHT22;48747;50.250;18.848;2023-04-25T19:50:28;9.40;97.20
37356;DHT22;48747;50.250;18.848;2023-04-25T19:52:21;9.40;97.50
37356;DHT22;48747;50.250;18.848;2023-04-25T19:54:24;9.40;98.00
37356;DHT22;48747;50.250;18.848;2023-04-25T19:56:27;9.50;97.90
37356;DHT22;48747;50.250;18.848;2023-04-25T19:58:30;9.50;98.10
37356;DHT22;48747;50.250;18.848;2023-04-25T20:00:33;9.50;97.80
37356;DHT22;48747;50.250;18.848;2023-04-25T20:02:38;9.60;97.50
37356;DHT22;48747;50.250;18.848;2023-04-25T20:06:51;9.50;98.00
37356;DHT22;48747;50.250;18.848;2023-04-25T20:08:56;9.50;98.20
37356;DHT22;48747;50.250;18.848;2023-04-25T20:11:01;9.50;98.20
37356;DHT22;48747;50.250;18.848;2023-04-25T20:13:05;9.50;98.50
37356;DHT22;48747;50.250;18.848;2023-04-25T20:15:09;9.40;99.30
37356;DHT22;48747;50.250;18.848;2023-04-25T20:17:13;9.30;99.50
37356;DHT22;48747;50.250;18.848;2023-04-25T20:19:17;9.30;99.90
37356;DHT22;48747;50.250;18.848;2023-04-25T20:21:23;9.30;99.90
37356;DHT22;48747;50.250;18.848;2023-04-25T20:23:27;9.20;99.90
37356;DHT22;48747;50.250;18.848;2023-04-25T20:25:30;9.10;99.90
37356;DHT22;48747;50.250;18.848;2023-04-25T20:27:33;9.10;99.90
37356;DHT22;48747;50.250;18.848;2023-04-25T20:29:37;9.10;99.90
37356;DHT22;48747;50.250;18.848;2023-04-25T20:31:48;9.10;99.90
37356;DHT22;48747;50.250;18.848;2023-04-25T20:33:52;9.10;99.90
37356;DHT22;48747;50.250;18.848;2023-04-25T20:35:57;9.10;99.90
37356;DHT22;48747;50.250;18.848;2023-04-25T20:38:02;9.10;99.90
37356;DHT22;48747;50.250;18.848;2023-04-25T20:40:07;9.20;99.90
37356;DHT22;48747;50.250;18.848;2023-04-25T20:42:10;9.20;99.90
37356;DHT22;48747;50.250;18.848;2023-04-25T20:44:13;9.20;99.90
37356;DHT22;48747;50.250;18.848;2023-04-25T20:46:18;9.20;99.90
37356;DHT22;48747;50.250;18.848;2023-04-25T20:48:21;9.20;99.90
37356;DHT22;48747;50.250;18.848;2023-04-25T20:50:28;9.20;99.90
37356;DHT22;48747;50.250;18.848;2023-04-25T20:52:31;9.20;99.90
37356;DHT22;48747;50.250;18.848;2023-04-25T20:54:34;9.20;99.90
37356;DHT22;48747;50.250;18.848;2023-04-25T20:56:38;9.30;99.90
37356;DHT22;48747;50.250;18.848;2023-04-25T20:58:43;9.20;99.90
37356;DHT22;48747;50.250;18.848;2023-04-25T21:00:46;9.20;99.90
37356;DHT22;48747;50.250;18.848;2023-04-25T21:02:50;9.20;99.90
37356;DHT22;48747;50.250;18.848;2023-04-25T21:04:53;9.20;99.90
37356;DHT22;48747;50.250;18.848;2023-04-25T21:06:58;9.20;99.90
37356;DHT22;48747;50.250;18.848;2023-04-25T21:09:01;9.20;99.90
37356;DHT22;48747;50.250;18.848;2023-04-25T21:11:06;9.20;99.90
37356;DHT22;48747;50.250;18.848;2023-04-25T21:13:10;9.10;99.90
37356;DHT22;48747;50.250;18.848;2023-04-25T21:15:14;9.10;99.90
37356;DHT22;48747;50.250;18.848;2023-04-25T21:17:19;9.10;99.90
37356;DHT22;48747;50.250;18.848;2023-04-25T21:19:22;9.10;99.90
37356;DHT22;48747;50.250;18.848;2023-04-25T21:21:25;9.10;99.90
37356;DHT22;48747;50.250;18.848;2023-04-25T21:23:29;9.10;99.90
37356;DHT22;48747;50.250;18.848;2023-04-25T21:25:37;9.00;99.90
37356;DHT22;48747;50.250;18.848;2023-04-25T21:27:37;9.10;99.90
37356;DHT22;48747;50.250;18.848;2023-04-25T21:29:40;9.10;99.90
37356;DHT22;48747;50.250;18.848;2023-04-25T21:31:43;9.00;99.90
37356;DHT22;48747;50.250;18.848;2023-04-25T21:33:47;9.00;99.90
37356;DHT22;48747;50.250;18.848;2023-04-25T21:35:52;8.90;99.90
37356;DHT22;48747;50.250;18.848;2023-04-25T21:37:55;8.90;99.90
37356;DHT22;48747;50.250;18.848;2023-04-25T21:39:58;8.70;99.90
37356;DHT22;48747;50.250;18.848;2023-04-25T21:42:01;8.60;99.90
37356;DHT22;48747;50.250;18.848;2023-04-25T21:44:07;8.50;99.90
37356;DHT22;48747;50.250;18.848;2023-04-25T21:46:12;8.40;99.90
37356;DHT22;48747;50.250;18.848;2023-04-25T21:48:15;8.30;99.90
37356;DHT22;48747;50.250;18.848;2023-04-25T21:50:18;8.30;99.90
37356;DHT22;48747;50.250;18.848;2023-04-25T21:52:23;8.20;99.90
37356;DHT22;48747;50.250;18.848;2023-04-25T21:54:26;8.20;99.90
37356;DHT22;48747;50.250;18.848;2023-04-25T21:56:32;8.10;99.90
37356;DHT22;48747;50.250;18.848;2023-04-25T21:58:36;8.10;99.90
37356;DHT22;48747;50.250;18.848;2023-04-25T22:00:41;8.00;99.90
37356;DHT22;48747;50.250;18.848;2023-04-25T22:02:49;8.00;99.90
37356;DHT22;48747;50.250;18.848;2023-04-25T22:04:54;8.00;99.90
37356;DHT22;48747;50.250;18.848;2023-04-25T22:06:57;7.90;99.90
37356;DHT22;48747;50.250;18.848;2023-04-25T22:09:03;7.90;99.90
37356;DHT22;48747;50.250;18.848;2023-04-25T22:11:08;7.90;99.90
37356;DHT22;48747;50.250;18.848;2023-04-25T22:13:11;7.90;99.90
37356;DHT22;48747;50.250;18.848;2023-04-25T22:15:14;7.90;99.90
37356;DHT22;48747;50.250;18.848;2023-04-25T22:17:19;8.00;99.90
37356;DHT22;48747;50.250;18.848;2023-04-25T22:19:23;8.00;99.90
37356;DHT22;48747;50.250;18.848;2023-04-25T22:21:27;7.90;99.90
37356;DHT22;48747;50.250;18.848;2023-04-25T22:23:30;8.00;99.90
37356;DHT22;48747;50.250;18.848;2023-04-25T22:25:33;7.90;99.90
37356;DHT22;48747;50.250;18.848;2023-04-25T22:27:36;8.00;99.90
37356;DHT22;48747;50.250;18.848;2023-04-25T22:29:41;8.00;99.90
37356;DHT22;48747;50.250;18.848;2023-04-25T22:31:47;8.00;99.90
37356;DHT22;48747;50.250;18.848;2023-04-25T22:33:50;7.90;99.90
37356;DHT22;48747;50.250;18.848;2023-04-25T22:35:53;8.00;99.90
37356;DHT22;48747;50.250;18.848;2023-04-25T22:37:56;8.00;99.90
37356;DHT22;48747;50.250;18.848;2023-04-25T22:40:01;8.00;99.90
37356;DHT22;48747;50.250;18.848;2023-04-25T22:42:06;8.00;99.90
37356;DHT22;48747;50.250;18.848;2023-04-25T22:44:09;8.00;99.90
37356;DHT22;48747;50.250;18.848;2023-04-25T22:46:17;8.00;99.90
37356;DHT22;48747;50.250;18.848;2023-04-25T22:48:20;8.00;99.90
37356;DHT22;48747;50.250;18.848;2023-04-25T22:50:30;8.00;99.90
37356;DHT22;48747;50.250;18.848;2023-04-25T22:52:30;8.00;99.90
37356;DHT22;48747;50.250;18.848;2023-04-25T22:54:36;8.00;99.90
37356;DHT22;48747;50.250;18.848;2023-04-25T22:56:40;7.80;99.90
37356;DHT22;48747;50.250;18.848;2023-04-25T22:58:43;7.90;99.90
37356;DHT22;48747;50.250;18.848;2023-04-25T23:00:46;7.80;99.90
37356;DHT22;48747;50.250;18.848;2023-04-25T23:02:49;7.80;99.90
37356;DHT22;48747;50.250;18.848;2023-04-25T23:04:55;7.80;99.90
37356;DHT22;48747;50.250;18.848;2023-04-25T23:06:58;7.80;99.90
37356;DHT22;48747;50.250;18.848;2023-04-25T23:09:01;7.80;99.90
37356;DHT22;48747;50.250;18.848;2023-04-25T23:11:08;7.80;99.90
37356;DHT22;48747;50.250;18.848;2023-04-25T23:13:11;7.80;99.90
37356;DHT22;48747;50.250;18.848;2023-04-25T23:15:17;7.70;99.90
37356;DHT22;48747;50.250;18.848;2023-04-25T23:17:20;7.70;99.90
37356;DHT22;48747;50.250;18.848;2023-04-25T23:19:23;7.80;99.90
37356;DHT22;48747;50.250;18.848;2023-04-25T23:21:27;7.80;99.90
37356;DHT22;48747;50.250;18.848;2023-04-25T23:23:30;7.80;99.90
37356;DHT22;48747;50.250;18.848;2023-04-25T23:25:38;7.80;99.90
37356;DHT22;48747;50.250;18.848;2023-04-25T23:27:41;7.80;99.90
37356;DHT22;48747;50.250;18.848;2023-04-25T23:29:50;7.80;99.90
37356;DHT22;48747;50.250;18.848;2023-04-25T23:31:55;7.80;99.90
37356;DHT22;48747;50.250;18.848;2023-04-25T23:33:58;7.80;99.90
37356;DHT22;48747;50.250;18.848;2023-04-25T23:36:01;7.70;99.90
37356;DHT22;48747;50.250;18.848;2023-04-25T23:38:05;7.70;99.90
37356;DHT22;48747;50.250;18.848;2023-04-25T23:40:08;7.80;99.90
37356;DHT22;48747;50.250;18.848;2023-04-25T23:42:13;7.70;99.90
37356;DHT22;48747;50.250;18.848;2023-04-25T23:44:16;7.70;99.90
37356;DHT22;48747;50.250;18.848;2023-04-25T23:46:19;7.70;99.90
37356;DHT22;48747;50.250;18.848;2023-04-25T23:48:23;7.70;99.90
37356;DHT22;48747;50.250;18.848;2023-04-25T23:50:27;7.70;99.90
37356;DHT22;48747;50.250;18.848;2023-04-25T23:52:32;7.80;99.90
37356;DHT22;48747;50.250;18.848;2023-04-25T23:54:35;7.80;99.90
37356;DHT22;48747;50.250;18.848;2023-04-25T23:56:38;7.70;99.90
37356;DHT22;48747;50.250;18.848;2023-04-25T23:58:41;7.70;99.90
